Dauntless Aviation
Airports Europe Germany
EDSW

Altdorf-Wallburg Airport

Altdorf, GERMANY

Airport Info
Suggest Updated Information for this Airport

Location

Latitude / Longitude: 48°16'12"N / 7°50'30"E
  48°16.2'N / 7°50.514'E
  48.2700 / 7.8419
Satellite photo at:
Airport distance calculator
From:
Weather Reports

METAR

TAF

EDTL
5.8nm NW
TAF EDTL 201400Z 2015/2024 03006KT 9999 BKN030
LFST
18.2nm NW
TAF LFST 201102Z 2012/2112 01008KT 8000 FEW018 BKN040 PROB40 TEMPO 2104/2109 BKN008
EDSB
32.3nm N
TAF EDSB 201100Z 2012/2112 03008KT 9999 BKN030 PROB30 TEMPO 2103/2109 4500 BR BKN010
Safelog

 

Dauntless Aviation

© 2007-2018 Dauntless Aviation, all rights reserved
Information provided via PilotNav comes from a variety of official and unofficial data sources. As errors are possible, do not use PilotNav for primary flight planning purposes. Verify any information that you receive via PilotNav with current and canonical charts and other official documents. The material in this database is subject to database copyrights held by Dauntless Aviation and may not be copied without the express permission of Dauntless Aviation - licenses for use of part of all of this data are available for purchase; enquire via the Dauntless Aviation helpdesk. A number of mechanisms and markers exist in the database to protect against and identify infringement / copyright. Automated queries against this website are stictly prohibited, and all activity is logged and analyzed.